sensor_id;sensor_type;location;lat;lon;timestamp;P1;durP1;ratioP1;P2;durP2;ratioP2
50633;SDS011;36596;55.798;38.462;2022-08-23T00:01:22;44.75;;;32.45;;
50633;SDS011;36596;55.798;38.462;2022-08-23T00:03:54;56.88;;;42.22;;
50633;SDS011;36596;55.798;38.462;2022-08-23T00:06:22;59.58;;;42.15;;
50633;SDS011;36596;55.798;38.462;2022-08-23T00:08:49;60.80;;;43.88;;
50633;SDS011;36596;55.798;38.462;2022-08-23T00:11:30;58.72;;;43.28;;
50633;SDS011;36596;55.798;38.462;2022-08-23T00:13:58;65.47;;;45.97;;
50633;SDS011;36596;55.798;38.462;2022-08-23T00:16:27;72.55;;;49.00;;
50633;SDS011;36596;55.798;38.462;2022-08-23T00:18:53;75.75;;;52.58;;
50633;SDS011;36596;55.798;38.462;2022-08-23T00:21:19;74.90;;;51.03;;
50633;SDS011;36596;55.798;38.462;2022-08-23T00:23:45;63.97;;;44.45;;
50633;SDS011;36596;55.798;38.462;2022-08-23T00:26:13;70.50;;;49.10;;
50633;SDS011;36596;55.798;38.462;2022-08-23T00:28:39;65.28;;;47.42;;
50633;SDS011;36596;55.798;38.462;2022-08-23T00:31:05;89.18;;;62.20;;
50633;SDS011;36596;55.798;38.462;2022-08-23T00:33:31;84.75;;;63.05;;
50633;SDS011;36596;55.798;38.462;2022-08-23T00:35:57;70.45;;;50.13;;
50633;SDS011;36596;55.798;38.462;2022-08-23T00:38:23;77.57;;;54.90;;
50633;SDS011;36596;55.798;38.462;2022-08-23T00:40:50;84.68;;;58.20;;
50633;SDS011;36596;55.798;38.462;2022-08-23T00:43:18;90.40;;;65.43;;
50633;SDS011;36596;55.798;38.462;2022-08-23T00:49:28;83.57;;;56.40;;
50633;SDS011;36596;55.798;38.462;2022-08-23T00:52:03;87.18;;;60.55;;
50633;SDS011;36596;55.798;38.462;2022-08-23T00:54:38;95.95;;;68.55;;
50633;SDS011;36596;55.798;38.462;2022-08-23T00:57:07;91.93;;;67.75;;
50633;SDS011;36596;55.798;38.462;2022-08-23T00:59:35;93.38;;;67.13;;
50633;SDS011;36596;55.798;38.462;2022-08-23T01:02:01;94.45;;;68.50;;
50633;SDS011;36596;55.798;38.462;2022-08-23T01:04:31;83.43;;;59.05;;
50633;SDS011;36596;55.798;38.462;2022-08-23T01:07:07;90.25;;;62.83;;
50633;SDS011;36596;55.798;38.462;2022-08-23T01:12:10;100.10;;;71.93;;
50633;SDS011;36596;55.798;38.462;2022-08-23T01:14:46;94.47;;;66.32;;
50633;SDS011;36596;55.798;38.462;2022-08-23T01:17:25;93.88;;;66.10;;
50633;SDS011;36596;55.798;38.462;2022-08-23T01:19:58;111.05;;;79.20;;
50633;SDS011;36596;55.798;38.462;2022-08-23T01:22:31;114.85;;;82.65;;
50633;SDS011;36596;55.798;38.462;2022-08-23T01:25:07;109.10;;;75.90;;
50633;SDS011;36596;55.798;38.462;2022-08-23T01:27:39;116.90;;;82.38;;
50633;SDS011;36596;55.798;38.462;2022-08-23T01:30:08;110.80;;;77.32;;
50633;SDS011;36596;55.798;38.462;2022-08-23T01:32:39;103.38;;;72.70;;
50633;SDS011;36596;55.798;38.462;2022-08-23T01:35:11;109.75;;;77.70;;
50633;SDS011;36596;55.798;38.462;2022-08-23T01:37:37;91.55;;;64.40;;
50633;SDS011;36596;55.798;38.462;2022-08-23T01:40:04;98.82;;;68.95;;
50633;SDS011;36596;55.798;38.462;2022-08-23T01:42:30;90.82;;;62.10;;
50633;SDS011;36596;55.798;38.462;2022-08-23T01:44:56;100.57;;;67.30;;
50633;SDS011;36596;55.798;38.462;2022-08-23T01:47:25;92.50;;;65.55;;
50633;SDS011;36596;55.798;38.462;2022-08-23T01:52:17;98.70;;;65.47;;
50633;SDS011;36596;55.798;38.462;2022-08-23T01:54:43;88.57;;;59.03;;
50633;SDS011;36596;55.798;38.462;2022-08-23T01:57:09;93.43;;;66.25;;
50633;SDS011;36596;55.798;38.462;2022-08-23T01:59:36;98.07;;;68.47;;
50633;SDS011;36596;55.798;38.462;2022-08-23T02:02:02;88.13;;;65.72;;
50633;SDS011;36596;55.798;38.462;2022-08-23T02:04:28;85.60;;;60.50;;
50633;SDS011;36596;55.798;38.462;2022-08-23T02:06:55;89.60;;;65.50;;
50633;SDS011;36596;55.798;38.462;2022-08-23T02:09:23;105.55;;;76.15;;
50633;SDS011;36596;55.798;38.462;2022-08-23T02:11:50;90.82;;;63.50;;
50633;SDS011;36596;55.798;38.462;2022-08-23T02:14:17;87.35;;;63.78;;
50633;SDS011;36596;55.798;38.462;2022-08-23T02:16:51;97.13;;;71.18;;
50633;SDS011;36596;55.798;38.462;2022-08-23T02:19:18;89.75;;;65.85;;
50633;SDS011;36596;55.798;38.462;2022-08-23T02:21:45;112.70;;;81.32;;
50633;SDS011;36596;55.798;38.462;2022-08-23T02:24:16;91.90;;;65.95;;
50633;SDS011;36596;55.798;38.462;2022-08-23T02:26:46;109.80;;;85.05;;
50633;SDS011;36596;55.798;38.462;2022-08-23T02:29:15;104.30;;;77.65;;
50633;SDS011;36596;55.798;38.462;2022-08-23T02:31:44;118.18;;;86.55;;
50633;SDS011;36596;55.798;38.462;2022-08-23T02:34:12;121.43;;;87.68;;
50633;SDS011;36596;55.798;38.462;2022-08-23T02:36:40;124.07;;;92.97;;
50633;SDS011;36596;55.798;38.462;2022-08-23T02:39:08;111.53;;;87.05;;
50633;SDS011;36596;55.798;38.462;2022-08-23T02:41:35;128.43;;;95.72;;
50633;SDS011;36596;55.798;38.462;2022-08-23T02:44:03;122.93;;;88.57;;
50633;SDS011;36596;55.798;38.462;2022-08-23T02:46:29;122.15;;;91.97;;
50633;SDS011;36596;55.798;38.462;2022-08-23T02:48:55;114.30;;;85.63;;
50633;SDS011;36596;55.798;38.462;2022-08-23T02:51:23;115.65;;;85.78;;
50633;SDS011;36596;55.798;38.462;2022-08-23T02:53:49;117.85;;;89.00;;
50633;SDS011;36596;55.798;38.462;2022-08-23T02:56:16;122.47;;;91.10;;
50633;SDS011;36596;55.798;38.462;2022-08-23T02:58:42;122.93;;;90.35;;
50633;SDS011;36596;55.798;38.462;2022-08-23T03:01:14;106.13;;;81.90;;
50633;SDS011;36596;55.798;38.462;2022-08-23T03:03:45;105.18;;;79.97;;
50633;SDS011;36596;55.798;38.462;2022-08-23T03:06:12;122.45;;;86.72;;
50633;SDS011;36596;55.798;38.462;2022-08-23T03:08:39;119.15;;;88.82;;
50633;SDS011;36596;55.798;38.462;2022-08-23T03:11:12;121.25;;;89.32;;
50633;SDS011;36596;55.798;38.462;2022-08-23T03:13:40;115.25;;;88.78;;
50633;SDS011;36596;55.798;38.462;2022-08-23T03:16:07;110.78;;;84.65;;
50633;SDS011;36596;55.798;38.462;2022-08-23T03:18:37;110.82;;;81.93;;
50633;SDS011;36596;55.798;38.462;2022-08-23T03:21:04;127.13;;;91.47;;
50633;SDS011;36596;55.798;38.462;2022-08-23T03:23:32;115.28;;;84.22;;
50633;SDS011;36596;55.798;38.462;2022-08-23T03:26:00;117.47;;;85.43;;
50633;SDS011;36596;55.798;38.462;2022-08-23T03:28:28;114.78;;;89.15;;
50633;SDS011;36596;55.798;38.462;2022-08-23T03:30:55;118.38;;;90.70;;
50633;SDS011;36596;55.798;38.462;2022-08-23T03:33:22;107.63;;;82.15;;
50633;SDS011;36596;55.798;38.462;2022-08-23T03:35:48;121.28;;;91.30;;
50633;SDS011;36596;55.798;38.462;2022-08-23T03:38:16;111.88;;;87.93;;
50633;SDS011;36596;55.798;38.462;2022-08-23T03:40:42;115.28;;;88.60;;
50633;SDS011;36596;55.798;38.462;2022-08-23T03:43:09;115.25;;;91.80;;
50633;SDS011;36596;55.798;38.462;2022-08-23T03:45:35;107.07;;;82.10;;
50633;SDS011;36596;55.798;38.462;2022-08-23T03:48:01;112.47;;;83.88;;
50633;SDS011;36596;55.798;38.462;2022-08-23T03:50:31;113.95;;;86.15;;
50633;SDS011;36596;55.798;38.462;2022-08-23T03:52:58;106.00;;;83.82;;
50633;SDS011;36596;55.798;38.462;2022-08-23T03:55:23;115.28;;;87.88;;
50633;SDS011;36596;55.798;38.462;2022-08-23T03:57:50;116.85;;;89.35;;
50633;SDS011;36596;55.798;38.462;2022-08-23T04:00:18;101.53;;;84.13;;
50633;SDS011;36596;55.798;38.462;2022-08-23T04:02:45;114.15;;;85.22;;
50633;SDS011;36596;55.798;38.462;2022-08-23T04:05:12;108.38;;;84.10;;
50633;SDS011;36596;55.798;38.462;2022-08-23T04:07:58;108.47;;;82.32;;
50633;SDS011;36596;55.798;38.462;2022-08-23T04:10:26;101.88;;;78.28;;
50633;SDS011;36596;55.798;38.462;2022-08-23T04:12:54;113.00;;;88.00;;
50633;SDS011;36596;55.798;38.462;2022-08-23T04:15:20;99.43;;;82.03;;
50633;SDS011;36596;55.798;38.462;2022-08-23T04:17:49;105.28;;;80.22;;
50633;SDS011;36596;55.798;38.462;2022-08-23T04:20:15;101.18;;;79.40;;
50633;SDS011;36596;55.798;38.462;2022-08-23T04:23:02;99.85;;;80.03;;
50633;SDS011;36596;55.798;38.462;2022-08-23T04:25:31;101.30;;;77.57;;
50633;SDS011;36596;55.798;38.462;2022-08-23T04:27:58;97.88;;;76.82;;
50633;SDS011;36596;55.798;38.462;2022-08-23T04:30:26;93.68;;;73.30;;
50633;SDS011;36596;55.798;38.462;2022-08-23T04:32:52;90.20;;;70.43;;
50633;SDS011;36596;55.798;38.462;2022-08-23T04:35:18;89.57;;;69.32;;
50633;SDS011;36596;55.798;38.462;2022-08-23T04:37:44;93.63;;;71.65;;
50633;SDS011;36596;55.798;38.462;2022-08-23T04:40:11;87.05;;;67.78;;
50633;SDS011;36596;55.798;38.462;2022-08-23T04:42:55;87.13;;;67.78;;
50633;SDS011;36596;55.798;38.462;2022-08-23T04:45:22;83.72;;;65.80;;
50633;SDS011;36596;55.798;38.462;2022-08-23T04:47:51;83.22;;;64.65;;
50633;SDS011;36596;55.798;38.462;2022-08-23T04:50:16;80.78;;;63.85;;
50633;SDS011;36596;55.798;38.462;2022-08-23T04:53:10;82.28;;;65.53;;
50633;SDS011;36596;55.798;38.462;2022-08-23T04:55:45;75.32;;;62.88;;
50633;SDS011;36596;55.798;38.462;2022-08-23T04:58:10;78.68;;;62.25;;
50633;SDS011;36596;55.798;38.462;2022-08-23T05:00:43;75.22;;;61.58;;
50633;SDS011;36596;55.798;38.462;2022-08-23T05:03:09;77.93;;;59.88;;
50633;SDS011;36596;55.798;38.462;2022-08-23T05:05:36;73.80;;;59.42;;
50633;SDS011;36596;55.798;38.462;2022-08-23T05:08:03;73.65;;;59.47;;
50633;SDS011;36596;55.798;38.462;2022-08-23T05:10:29;75.63;;;59.63;;
50633;SDS011;36596;55.798;38.462;2022-08-23T05:12:55;69.05;;;58.00;;
50633;SDS011;36596;55.798;38.462;2022-08-23T05:15:21;72.28;;;57.08;;
50633;SDS011;36596;55.798;38.462;2022-08-23T05:17:54;72.00;;;58.90;;
50633;SDS011;36596;55.798;38.462;2022-08-23T05:20:20;69.65;;;55.63;;
50633;SDS011;36596;55.798;38.462;2022-08-23T05:22:46;68.15;;;55.60;;
50633;SDS011;36596;55.798;38.462;2022-08-23T05:25:28;64.25;;;52.90;;
50633;SDS011;36596;55.798;38.462;2022-08-23T05:28:15;67.57;;;54.70;;
50633;SDS011;36596;55.798;38.462;2022-08-23T05:30:53;66.78;;;54.22;;
50633;SDS011;36596;55.798;38.462;2022-08-23T05:33:23;67.20;;;53.42;;
50633;SDS011;36596;55.798;38.462;2022-08-23T05:35:49;62.92;;;52.22;;
50633;SDS011;36596;55.798;38.462;2022-08-23T05:38:15;65.90;;;51.92;;
50633;SDS011;36596;55.798;38.462;2022-08-23T05:40:49;63.97;;;51.90;;
50633;SDS011;36596;55.798;38.462;2022-08-23T05:43:19;61.20;;;49.10;;
50633;SDS011;36596;55.798;38.462;2022-08-23T05:45:45;61.75;;;48.47;;
50633;SDS011;36596;55.798;38.462;2022-08-23T05:48:12;58.13;;;46.72;;
50633;SDS011;36596;55.798;38.462;2022-08-23T05:50:45;62.53;;;48.67;;
50633;SDS011;36596;55.798;38.462;2022-08-23T05:53:12;59.40;;;47.35;;
50633;SDS011;36596;55.798;38.462;2022-08-23T05:55:40;55.90;;;43.50;;
50633;SDS011;36596;55.798;38.462;2022-08-23T05:58:16;56.40;;;45.70;;
50633;SDS011;36596;55.798;38.462;2022-08-23T06:00:43;54.90;;;42.40;;
50633;SDS011;36596;55.798;38.462;2022-08-23T06:03:10;49.70;;;39.55;;
50633;SDS011;36596;55.798;38.462;2022-08-23T06:05:37;54.28;;;42.85;;
50633;SDS011;36596;55.798;38.462;2022-08-23T06:08:05;53.08;;;42.30;;
50633;SDS011;36596;55.798;38.462;2022-08-23T06:10:31;43.10;;;37.13;;
50633;SDS011;36596;55.798;38.462;2022-08-23T06:13:05;47.13;;;38.92;;
50633;SDS011;36596;55.798;38.462;2022-08-23T06:15:30;48.53;;;38.35;;
50633;SDS011;36596;55.798;38.462;2022-08-23T06:17:57;44.90;;;38.03;;
50633;SDS011;36596;55.798;38.462;2022-08-23T06:20:24;44.83;;;37.03;;
50633;SDS011;36596;55.798;38.462;2022-08-23T06:23:04;46.53;;;34.42;;
50633;SDS011;36596;55.798;38.462;2022-08-23T06:25:35;46.00;;;36.08;;
50633;SDS011;36596;55.798;38.462;2022-08-23T06:28:09;43.05;;;36.40;;
50633;SDS011;36596;55.798;38.462;2022-08-23T06:30:37;44.75;;;37.92;;
50633;SDS011;36596;55.798;38.462;2022-08-23T06:33:20;47.42;;;38.42;;
50633;SDS011;36596;55.798;38.462;2022-08-23T06:36:08;42.38;;;36.45;;
50633;SDS011;36596;55.798;38.462;2022-08-23T06:39:07;42.22;;;36.95;;
50633;SDS011;36596;55.798;38.462;2022-08-23T06:42:08;47.20;;;36.05;;
50633;SDS011;36596;55.798;38.462;2022-08-23T06:44:42;45.15;;;36.55;;
50633;SDS011;36596;55.798;38.462;2022-08-23T06:47:17;44.17;;;36.00;;
50633;SDS011;36596;55.798;38.462;2022-08-23T06:49:43;40.08;;;33.63;;
50633;SDS011;36596;55.798;38.462;2022-08-23T06:52:09;42.00;;;34.25;;
50633;SDS011;36596;55.798;38.462;2022-08-23T06:54:54;38.13;;;31.15;;
50633;SDS011;36596;55.798;38.462;2022-08-23T06:57:29;36.90;;;30.52;;
50633;SDS011;36596;55.798;38.462;2022-08-23T07:00:15;36.20;;;29.40;;
50633;SDS011;36596;55.798;38.462;2022-08-23T07:02:59;30.35;;;26.00;;
50633;SDS011;36596;55.798;38.462;2022-08-23T07:05:43;33.03;;;25.58;;
50633;SDS011;36596;55.798;38.462;2022-08-23T07:08:18;31.15;;;26.08;;
50633;SDS011;36596;55.798;38.462;2022-08-23T07:10:45;35.83;;;25.85;;
50633;SDS011;36596;55.798;38.462;2022-08-23T07:13:11;33.08;;;26.70;;
50633;SDS011;36596;55.798;38.462;2022-08-23T07:15:40;33.75;;;25.40;;
50633;SDS011;36596;55.798;38.462;2022-08-23T07:18:10;32.10;;;28.70;;
50633;SDS011;36596;55.798;38.462;2022-08-23T07:20:37;28.25;;;23.92;;
50633;SDS011;36596;55.798;38.462;2022-08-23T07:23:03;28.10;;;22.30;;
50633;SDS011;36596;55.798;38.462;2022-08-23T07:25:30;29.77;;;21.05;;
50633;SDS011;36596;55.798;38.462;2022-08-23T07:28:01;20.30;;;16.73;;
50633;SDS011;36596;55.798;38.462;2022-08-23T07:30:29;25.80;;;19.20;;
50633;SDS011;36596;55.798;38.462;2022-08-23T07:32:58;20.65;;;15.73;;
50633;SDS011;36596;55.798;38.462;2022-08-23T07:35:28;18.02;;;15.48;;
50633;SDS011;36596;55.798;38.462;2022-08-23T07:40:27;19.40;;;15.63;;
50633;SDS011;36596;55.798;38.462;2022-08-23T07:42:56;17.15;;;15.10;;
50633;SDS011;36596;55.798;38.462;2022-08-23T07:45:22;20.58;;;16.73;;
50633;SDS011;36596;55.798;38.462;2022-08-23T07:47:49;20.30;;;17.45;;
50633;SDS011;36596;55.798;38.462;2022-08-23T07:50:15;20.98;;;15.95;;
50633;SDS011;36596;55.798;38.462;2022-08-23T07:52:43;21.00;;;15.88;;
50633;SDS011;36596;55.798;38.462;2022-08-23T07:55:09;20.35;;;16.17;;
50633;SDS011;36596;55.798;38.462;2022-08-23T07:57:53;19.70;;;14.75;;
50633;SDS011;36596;55.798;38.462;2022-08-23T08:00:32;19.83;;;13.88;;
50633;SDS011;36596;55.798;38.462;2022-08-23T08:03:14;16.40;;;13.85;;
50633;SDS011;36596;55.798;38.462;2022-08-23T08:06:04;22.88;;;14.25;;
50633;SDS011;36596;55.798;38.462;2022-08-23T08:08:31;20.27;;;14.50;;
50633;SDS011;36596;55.798;38.462;2022-08-23T08:10:57;18.90;;;15.20;;
50633;SDS011;36596;55.798;38.462;2022-08-23T08:13:23;18.38;;;14.35;;
50633;SDS011;36596;55.798;38.462;2022-08-23T08:15:49;17.23;;;14.55;;
50633;SDS011;36596;55.798;38.462;2022-08-23T08:18:16;15.55;;;12.73;;
50633;SDS011;36596;55.798;38.462;2022-08-23T08:21:01;13.13;;;11.38;;
50633;SDS011;36596;55.798;38.462;2022-08-23T08:23:54;16.92;;;12.77;;
50633;SDS011;36596;55.798;38.462;2022-08-23T08:26:49;15.32;;;12.30;;
50633;SDS011;36596;55.798;38.462;2022-08-23T08:29:16;15.10;;;12.90;;
50633;SDS011;36596;55.798;38.462;2022-08-23T08:31:43;15.40;;;12.63;;
50633;SDS011;36596;55.798;38.462;2022-08-23T08:34:11;15.02;;;11.82;;
50633;SDS011;36596;55.798;38.462;2022-08-23T08:39:18;19.80;;;12.07;;
50633;SDS011;36596;55.798;38.462;2022-08-23T08:44:41;15.82;;;11.32;;
50633;SDS011;36596;55.798;38.462;2022-08-23T08:50:15;13.57;;;8.88;;
50633;SDS011;36596;55.798;38.462;2022-08-23T08:52:48;11.30;;;8.15;;
50633;SDS011;36596;55.798;38.462;2022-08-23T08:55:29;8.93;;;7.63;;
50633;SDS011;36596;55.798;38.462;2022-08-23T08:57:58;9.95;;;6.18;;
50633;SDS011;36596;55.798;38.462;2022-08-23T09:00:27;12.90;;;7.75;;
50633;SDS011;36596;55.798;38.462;2022-08-23T09:02:57;18.58;;;8.63;;
50633;SDS011;36596;55.798;38.462;2022-08-23T09:05:29;11.27;;;8.88;;
50633;SDS011;36596;55.798;38.462;2022-08-23T09:13:32;11.82;;;10.07;;
50633;SDS011;36596;55.798;38.462;2022-08-23T09:19:02;15.30;;;11.20;;
50633;SDS011;36596;55.798;38.462;2022-08-23T09:21:30;12.50;;;11.20;;
50633;SDS011;36596;55.798;38.462;2022-08-23T09:24:08;16.08;;;11.73;;
50633;SDS011;36596;55.798;38.462;2022-08-23T09:26:46;13.95;;;10.82;;
50633;SDS011;36596;55.798;38.462;2022-08-23T09:29:15;16.65;;;12.60;;
50633;SDS011;36596;55.798;38.462;2022-08-23T09:31:44;15.27;;;12.25;;
50633;SDS011;36596;55.798;38.462;2022-08-23T09:34:56;20.17;;;12.48;;
50633;SDS011;36596;55.798;38.462;2022-08-23T09:39:37;16.58;;;13.02;;
50633;SDS011;36596;55.798;38.462;2022-08-23T09:42:24;17.50;;;14.55;;
50633;SDS011;36596;55.798;38.462;2022-08-23T09:44:56;20.23;;;18.00;;
50633;SDS011;36596;55.798;38.462;2022-08-23T09:47:29;21.42;;;18.27;;
50633;SDS011;36596;55.798;38.462;2022-08-23T09:50:09;21.35;;;18.67;;
50633;SDS011;36596;55.798;38.462;2022-08-23T09:52:45;20.88;;;18.73;;
50633;SDS011;36596;55.798;38.462;2022-08-23T09:55:25;20.88;;;17.98;;
50633;SDS011;36596;55.798;38.462;2022-08-23T09:57:51;24.63;;;18.38;;
50633;SDS011;36596;55.798;38.462;2022-08-23T10:00:24;23.23;;;17.23;;
50633;SDS011;36596;55.798;38.462;2022-08-23T10:02:53;16.08;;;11.15;;
50633;SDS011;36596;55.798;38.462;2022-08-23T10:05:39;17.80;;;12.15;;
50633;SDS011;36596;55.798;38.462;2022-08-23T10:08:14;17.13;;;13.77;;
50633;SDS011;36596;55.798;38.462;2022-08-23T10:11:21;16.95;;;12.90;;
50633;SDS011;36596;55.798;38.462;2022-08-23T10:13:50;14.68;;;13.18;;
50633;SDS011;36596;55.798;38.462;2022-08-23T10:16:33;14.80;;;12.88;;
50633;SDS011;36596;55.798;38.462;2022-08-23T10:41:19;12.75;;;10.23;;
50633;SDS011;36596;55.798;38.462;2022-08-23T10:44:05;11.57;;;10.30;;
50633;SDS011;36596;55.798;38.462;2022-08-23T10:46:35;12.75;;;10.45;;
50633;SDS011;36596;55.798;38.462;2022-08-23T10:49:10;15.13;;;11.02;;
50633;SDS011;36596;55.798;38.462;2022-08-23T10:51:39;12.45;;;10.13;;
50633;SDS011;36596;55.798;38.462;2022-08-23T10:54:10;13.68;;;10.93;;
50633;SDS011;36596;55.798;38.462;2022-08-23T10:56:43;18.52;;;10.27;;
50633;SDS011;36596;55.798;38.462;2022-08-23T10:59:12;14.25;;;9.98;;
50633;SDS011;36596;55.798;38.462;2022-08-23T11:02:07;10.30;;;9.27;;
50633;SDS011;36596;55.798;38.462;2022-08-23T11:07:31;10.50;;;8.38;;
50633;SDS011;36596;55.798;38.462;2022-08-23T11:12:31;13.60;;;8.32;;
50633;SDS011;36596;55.798;38.462;2022-08-23T11:15:10;11.90;;;7.90;;
50633;SDS011;36596;55.798;38.462;2022-08-23T11:23:23;10.35;;;8.80;;
50633;SDS011;36596;55.798;38.462;2022-08-23T11:26:03;10.85;;;9.07;;
50633;SDS011;36596;55.798;38.462;2022-08-23T11:28:42;10.63;;;8.68;;
50633;SDS011;36596;55.798;38.462;2022-08-23T11:36:40;6.28;;;5.50;;
50633;SDS011;36596;55.798;38.462;2022-08-23T11:42:46;10.52;;;5.97;;
50633;SDS011;36596;55.798;38.462;2022-08-23T11:48:34;8.85;;;6.07;;
50633;SDS011;36596;55.798;38.462;2022-08-23T11:51:11;8.82;;;6.65;;
50633;SDS011;36596;55.798;38.462;2022-08-23T12:05:26;7.03;;;6.28;;
50633;SDS011;36596;55.798;38.462;2022-08-23T12:18:37;7.80;;;5.43;;
50633;SDS011;36596;55.798;38.462;2022-08-23T12:21:25;8.65;;;5.53;;
50633;SDS011;36596;55.798;38.462;2022-08-23T12:23:53;6.97;;;5.65;;
50633;SDS011;36596;55.798;38.462;2022-08-23T12:29:11;14.43;;;9.15;;
50633;SDS011;36596;55.798;38.462;2022-08-23T12:32:05;9.48;;;6.88;;
50633;SDS011;36596;55.798;38.462;2022-08-23T12:37:20;10.57;;;5.85;;
50633;SDS011;36596;55.798;38.462;2022-08-23T12:39:55;8.73;;;6.40;;
50633;SDS011;36596;55.798;38.462;2022-08-23T12:47:43;6.68;;;5.93;;
50633;SDS011;36596;55.798;38.462;2022-08-23T12:50:23;8.95;;;5.25;;
50633;SDS011;36596;55.798;38.462;2022-08-23T12:52:59;6.43;;;5.35;;
50633;SDS011;36596;55.798;38.462;2022-08-23T12:55:30;8.55;;;7.03;;
50633;SDS011;36596;55.798;38.462;2022-08-23T12:58:03;10.95;;;6.85;;
50633;SDS011;36596;55.798;38.462;2022-08-23T13:00:32;8.82;;;5.93;;
50633;SDS011;36596;55.798;38.462;2022-08-23T13:03:11;10.95;;;7.50;;
50633;SDS011;36596;55.798;38.462;2022-08-23T13:05:43;8.13;;;6.22;;
50633;SDS011;36596;55.798;38.462;2022-08-23T13:08:20;9.93;;;6.55;;
50633;SDS011;36596;55.798;38.462;2022-08-23T13:10:49;13.27;;;8.88;;
50633;SDS011;36596;55.798;38.462;2022-08-23T13:13:17;11.20;;;6.97;;
50633;SDS011;36596;55.798;38.462;2022-08-23T13:21:14;11.50;;;8.30;;
50633;SDS011;36596;55.798;38.462;2022-08-23T13:23:47;8.55;;;7.55;;
50633;SDS011;36596;55.798;38.462;2022-08-23T13:29:26;9.88;;;7.93;;
50633;SDS011;36596;55.798;38.462;2022-08-23T13:32:00;9.57;;;7.97;;
50633;SDS011;36596;55.798;38.462;2022-08-23T13:39:46;9.35;;;6.40;;
50633;SDS011;36596;55.798;38.462;2022-08-23T13:42:23;12.30;;;6.72;;
50633;SDS011;36596;55.798;38.462;2022-08-23T13:45:13;9.02;;;7.20;;
50633;SDS011;36596;55.798;38.462;2022-08-23T13:47:53;12.60;;;7.55;;
50633;SDS011;36596;55.798;38.462;2022-08-23T13:50:22;17.27;;;13.60;;
50633;SDS011;36596;55.798;38.462;2022-08-23T13:52:51;21.80;;;18.92;;
50633;SDS011;36596;55.798;38.462;2022-08-23T13:55:20;26.10;;;21.33;;
50633;SDS011;36596;55.798;38.462;2022-08-23T13:57:46;28.10;;;22.67;;
50633;SDS011;36596;55.798;38.462;2022-08-23T14:00:12;27.38;;;22.30;;
50633;SDS011;36596;55.798;38.462;2022-08-23T14:02:39;30.83;;;25.02;;
50633;SDS011;36596;55.798;38.462;2022-08-23T14:05:06;30.40;;;24.20;;
50633;SDS011;36596;55.798;38.462;2022-08-23T14:07:33;31.75;;;26.23;;
50633;SDS011;36596;55.798;38.462;2022-08-23T14:10:02;29.55;;;24.85;;
50633;SDS011;36596;55.798;38.462;2022-08-23T14:12:29;29.33;;;25.08;;
50633;SDS011;36596;55.798;38.462;2022-08-23T14:15:01;30.80;;;26.50;;
50633;SDS011;36596;55.798;38.462;2022-08-23T14:17:35;30.88;;;27.10;;
50633;SDS011;36596;55.798;38.462;2022-08-23T14:20:05;32.45;;;27.77;;
50633;SDS011;36596;55.798;38.462;2022-08-23T14:22:32;33.28;;;28.27;;
50633;SDS011;36596;55.798;38.462;2022-08-23T14:24:59;32.25;;;27.77;;
50633;SDS011;36596;55.798;38.462;2022-08-23T14:27:24;32.47;;;29.02;;
50633;SDS011;36596;55.798;38.462;2022-08-23T14:29:50;37.38;;;30.80;;
50633;SDS011;36596;55.798;38.462;2022-08-23T14:32:19;39.70;;;32.88;;
50633;SDS011;36596;55.798;38.462;2022-08-23T14:34:45;43.05;;;34.85;;
50633;SDS011;36596;55.798;38.462;2022-08-23T14:37:10;41.35;;;34.70;;
50633;SDS011;36596;55.798;38.462;2022-08-23T14:39:36;43.85;;;36.00;;
50633;SDS011;36596;55.798;38.462;2022-08-23T14:42:04;49.35;;;38.83;;
50633;SDS011;36596;55.798;38.462;2022-08-23T14:44:30;48.05;;;38.13;;
50633;SDS011;36596;55.798;38.462;2022-08-23T14:46:56;46.40;;;37.10;;
50633;SDS011;36596;55.798;38.462;2022-08-23T14:49:24;45.65;;;37.55;;
50633;SDS011;36596;55.798;38.462;2022-08-23T14:51:49;47.28;;;37.65;;
50633;SDS011;36596;55.798;38.462;2022-08-23T14:54:18;44.53;;;35.78;;
50633;SDS011;36596;55.798;38.462;2022-08-23T14:56:46;43.72;;;35.83;;
50633;SDS011;36596;55.798;38.462;2022-08-23T14:59:12;44.22;;;37.25;;
50633;SDS011;36596;55.798;38.462;2022-08-23T15:01:38;46.75;;;37.47;;
50633;SDS011;36596;55.798;38.462;2022-08-23T15:04:05;45.85;;;36.80;;
50633;SDS011;36596;55.798;38.462;2022-08-23T15:06:31;46.25;;;37.40;;
50633;SDS011;36596;55.798;38.462;2022-08-23T15:08:56;42.88;;;36.10;;
50633;SDS011;36596;55.798;38.462;2022-08-23T15:11:22;44.63;;;36.72;;
50633;SDS011;36596;55.798;38.462;2022-08-23T15:13:48;44.80;;;37.13;;
50633;SDS011;36596;55.798;38.462;2022-08-23T15:16:15;49.03;;;37.63;;
50633;SDS011;36596;55.798;38.462;2022-08-23T15:18:44;47.33;;;36.63;;
50633;SDS011;36596;55.798;38.462;2022-08-23T15:21:11;48.50;;;36.77;;
50633;SDS011;36596;55.798;38.462;2022-08-23T15:23:37;46.65;;;37.45;;
50633;SDS011;36596;55.798;38.462;2022-08-23T15:26:02;47.08;;;37.45;;
50633;SDS011;36596;55.798;38.462;2022-08-23T15:28:28;47.50;;;37.85;;
50633;SDS011;36596;55.798;38.462;2022-08-23T15:30:54;49.78;;;37.15;;
50633;SDS011;36596;55.798;38.462;2022-08-23T15:33:20;43.17;;;36.78;;
50633;SDS011;36596;55.798;38.462;2022-08-23T15:35:48;46.00;;;37.17;;
50633;SDS011;36596;55.798;38.462;2022-08-23T15:38:19;53.90;;;38.60;;
50633;SDS011;36596;55.798;38.462;2022-08-23T15:40:47;44.70;;;36.42;;
50633;SDS011;36596;55.798;38.462;2022-08-23T15:43:13;50.85;;;39.10;;
50633;SDS011;36596;55.798;38.462;2022-08-23T15:45:39;50.08;;;37.95;;
50633;SDS011;36596;55.798;38.462;2022-08-23T15:48:07;50.40;;;38.22;;
50633;SDS011;36596;55.798;38.462;2022-08-23T15:51:04;52.03;;;37.72;;
50633;SDS011;36596;55.798;38.462;2022-08-23T15:53:30;49.45;;;39.33;;
50633;SDS011;36596;55.798;38.462;2022-08-23T15:55:56;53.80;;;39.72;;
50633;SDS011;36596;55.798;38.462;2022-08-23T15:58:24;48.58;;;38.40;;
50633;SDS011;36596;55.798;38.462;2022-08-23T16:00:51;52.70;;;39.92;;
50633;SDS011;36596;55.798;38.462;2022-08-23T16:03:18;50.35;;;39.20;;
50633;SDS011;36596;55.798;38.462;2022-08-23T16:05:46;53.30;;;38.55;;
50633;SDS011;36596;55.798;38.462;2022-08-23T16:10:49;48.83;;;37.15;;
50633;SDS011;36596;55.798;38.462;2022-08-23T16:13:15;51.03;;;38.28;;
50633;SDS011;36596;55.798;38.462;2022-08-23T16:15:41;49.05;;;36.70;;
50633;SDS011;36596;55.798;38.462;2022-08-23T16:18:09;43.95;;;35.47;;
50633;SDS011;36596;55.798;38.462;2022-08-23T16:20:38;44.75;;;35.50;;
50633;SDS011;36596;55.798;38.462;2022-08-23T16:23:04;45.80;;;35.13;;
50633;SDS011;36596;55.798;38.462;2022-08-23T16:25:30;48.85;;;36.45;;
50633;SDS011;36596;55.798;38.462;2022-08-23T16:27:56;43.90;;;35.40;;
50633;SDS011;36596;55.798;38.462;2022-08-23T16:30:23;49.78;;;35.03;;
50633;SDS011;36596;55.798;38.462;2022-08-23T16:32:49;45.33;;;35.60;;
50633;SDS011;36596;55.798;38.462;2022-08-23T16:35:18;49.92;;;36.55;;